Time;durP1;ratioP1;P1;durP2;ratioP2;P2;SDS_P1;SDS_P2;PMS_P1;PMS_P2;Temp;Humidity;BMP_temperature;BMP_pressure;BME280_temperature;BME280_humidity;BME280_pressure;Samples;Min_cycle;Max_cycle;Signal;HPM_P1;HPM_P2
2022/10/19 00:00:26;;;;;;;84.60;32.92;;;;;;;;;;5059178;28;20025;-83
2022/10/19 00:02:52;;;;;;;62.30;27.15;;;;;;;;;;5058455;28;20203;-82
2022/10/19 00:05:18;;;;;;;61.25;28.15;;;;;;;;;;5038906;28;20029;-82
2022/10/19 00:07:47;;;;;;;72.25;30.83;;;;;;;;;;5047749;28;20021;-82
2022/10/19 00:10:13;;;;;;;72.97;29.00;;;;;;;;;;5040145;28;20510;-83
2022/10/19 00:12:39;;;;;;;73.72;29.55;;;;;;;;;;5040059;28;20021;-83
2022/10/19 00:15:06;;;;;;;70.95;28.95;;;;;;;;;;5057758;28;20032;-82
2022/10/19 00:17:33;;;;;;;61.78;27.30;;;;;;;;;;5040379;28;20117;-83
2022/10/19 00:19:59;;;;;;;62.67;26.50;;;;;;;;;;5042996;28;20021;-82
2022/10/19 00:22:25;;;;;;;60.33;26.27;;;;;;;;;;5040826;28;20028;-82
2022/10/19 00:24:51;;;;;;;72.07;27.77;;;;;;;;;;5044526;28;20406;-81
2022/10/19 00:27:17;;;;;;;54.42;24.08;;;;;;;;;;5058329;28;20016;-83
2022/10/19 00:29:43;;;;;;;62.33;25.65;;;;;;;;;;5057610;28;20041;-83
2022/10/19 00:32:09;;;;;;;54.03;23.63;;;;;;;;;;5040011;28;20021;-83
2022/10/19 00:34:35;;;;;;;66.32;26.52;;;;;;;;;;5041306;28;20036;-84
2022/10/19 00:37:02;;;;;;;65.22;27.65;;;;;;;;;;5059017;28;20021;-84
2022/10/19 00:39:28;;;;;;;49.13;23.05;;;;;;;;;;5046247;28;20025;-83
2022/10/19 00:41:54;;;;;;;62.30;26.33;;;;;;;;;;5054547;28;20089;-83
2022/10/19 00:44:20;;;;;;;57.25;23.88;;;;;;;;;;5053660;28;20035;-83
2022/10/19 00:46:50;;;;;;;53.15;24.15;;;;;;;;;;5045615;28;20025;-83
2022/10/19 00:49:27;;;;;;;64.63;25.05;;;;;;;;;;5060753;28;20021;-82
2022/10/19 00:51:55;;;;;;;54.90;23.38;;;;;;;;;;5061406;28;20562;-82
2022/10/19 00:54:22;;;;;;;48.53;22.02;;;;;;;;;;5062254;28;20029;-82
2022/10/19 00:56:52;;;;;;;58.63;23.67;;;;;;;;;;5064447;28;20079;-82
2022/10/19 00:59:20;;;;;;;44.95;22.13;;;;;;;;;;5049833;28;20029;-82
2022/10/19 01:01:46;;;;;;;46.85;21.23;;;;;;;;;;5050584;28;20033;-82
2022/10/19 01:04:13;;;;;;;68.10;23.83;;;;;;;;;;5050757;28;20045;-82
2022/10/19 01:06:42;;;;;;;61.65;24.95;;;;;;;;;;5049390;22;20046;-82
2022/10/19 01:09:08;;;;;;;54.42;24.35;;;;;;;;;;5056398;28;20646;-82
2022/10/19 01:12:10;;;;;;;64.88;26.95;;;;;;;;;;5051485;28;20021;-82
2022/10/19 01:14:39;;;;;;;61.65;25.17;;;;;;;;;;5016325;28;20049;-83
2022/10/19 01:17:10;;;;;;;44.65;22.70;;;;;;;;;;5054379;28;20017;-80
2022/10/19 01:19:36;;;;;;;;;;;;;;;;;;5050617;28;20025;-83
2022/10/19 01:22:05;;;;;;;69.13;24.38;;;;;;;;;;5063073;28;19905;-80
2022/10/19 01:24:37;;;;;;;51.78;23.02;;;;;;;;;;5044575;28;20105;-82
2022/10/19 01:27:11;;;;;;;51.95;23.42;;;;;;;;;;5048553;28;20178;-79
2022/10/19 01:29:57;;;;;;;61.03;24.83;;;;;;;;;;5062044;28;20047;-82
2022/10/19 01:32:39;;;;;;;54.10;23.00;;;;;;;;;;5067746;28;20009;-82
2022/10/19 01:35:35;;;;;;;64.55;23.10;;;;;;;;;;5067894;28;20071;-82
2022/10/19 01:38:12;;;;;;;44.50;19.73;;;;;;;;;;5027810;28;20083;-83
2022/10/19 01:40:41;;;;;;;44.05;20.65;;;;;;;;;;5066443;28;20029;-81
2022/10/19 01:43:07;;;;;;;41.95;19.85;;;;;;;;;;5065779;28;20025;-82
2022/10/19 01:45:38;;;;;;;58.60;21.00;;;;;;;;;;5051127;28;20074;-83
2022/10/19 01:48:07;;;;;;;54.60;21.08;;;;;;;;;;5068894;28;20025;-83
2022/10/19 01:50:50;;;;;;;38.53;18.77;;;;;;;;;;5053553;28;20033;-80
2022/10/19 01:53:17;;;;;;;35.63;17.40;;;;;;;;;;5052618;28;20033;-81
2022/10/19 01:55:44;;;;;;;52.55;17.83;;;;;;;;;;5053307;28;20025;-82
2022/10/19 01:58:13;;;;;;;37.95;17.15;;;;;;;;;;5069991;28;20028;-82
2022/10/19 02:00:42;;;;;;;38.22;17.73;;;;;;;;;;5070477;28;20514;-82
2022/10/19 02:03:09;;;;;;;42.63;18.13;;;;;;;;;;5071400;28;20025;-82
2022/10/19 02:05:36;;;;;;;49.97;19.67;;;;;;;;;;5053325;28;20418;-82
2022/10/19 02:08:04;;;;;;;50.63;20.92;;;;;;;;;;5071550;28;20029;-81
2022/10/19 02:10:32;;;;;;;47.15;19.02;;;;;;;;;;5072018;28;20024;-81
2022/10/19 02:12:58;;;;;;;51.80;20.75;;;;;;;;;;5072008;28;20005;-81
2022/10/19 02:15:25;;;;;;;48.65;19.92;;;;;;;;;;5070784;28;20029;-81
2022/10/19 02:17:54;;;;;;;36.92;17.70;;;;;;;;;;5068477;28;20036;-81
2022/10/19 02:20:22;;;;;;;50.10;21.08;;;;;;;;;;5070324;28;20021;-83
2022/10/19 02:22:48;;;;;;;40.92;17.65;;;;;;;;;;5053173;28;20060;-82
2022/10/19 02:25:14;;;;;;;48.00;16.80;;;;;;;;;;5065483;28;20087;-81
2022/10/19 02:27:41;;;;;;;30.48;15.20;;;;;;;;;;5041759;28;20556;-82
2022/10/19 02:30:08;;;;;;;41.15;15.80;;;;;;;;;;5060436;28;20075;-82
2022/10/19 02:32:34;;;;;;;37.97;15.18;;;;;;;;;;5042256;28;20045;-82
2022/10/19 02:35:01;;;;;;;36.65;15.00;;;;;;;;;;5042379;28;20024;-82
2022/10/19 02:37:27;;;;;;;36.92;14.27;;;;;;;;;;5041223;28;20170;-83
2022/10/19 02:39:53;;;;;;;32.88;15.18;;;;;;;;;;5042195;28;20021;-83
2022/10/19 02:42:33;;;;;;;41.38;16.10;;;;;;;;;;5042119;28;20021;-83
2022/10/19 02:45:06;;;;;;;39.72;16.48;;;;;;;;;;5041400;28;20025;-83
2022/10/19 02:47:44;;;;;;;45.25;16.75;;;;;;;;;;5042593;28;20067;-83
2022/10/19 02:50:12;;;;;;;33.47;15.15;;;;;;;;;;5061443;28;20092;-82
2022/10/19 02:52:39;;;;;;;29.00;15.60;;;;;;;;;;5043092;28;20199;-83
2022/10/19 02:55:08;;;;;;;34.17;15.23;;;;;;;;;;5042657;28;20017;-83
2022/10/19 02:57:34;;;;;;;38.33;15.40;;;;;;;;;;5042592;28;20036;-82
2022/10/19 03:00:02;;;;;;;26.45;13.40;;;;;;;;;;5060703;28;20017;-82
2022/10/19 03:02:28;;;;;;;31.80;13.75;;;;;;;;;;5042841;28;20033;-81
2022/10/19 03:04:54;;;;;;;32.13;15.40;;;;;;;;;;5063955;28;20025;-82
2022/10/19 03:07:24;;;;;;;26.88;13.23;;;;;;;;;;5045040;28;20025;-83
2022/10/19 03:09:50;;;;;;;27.90;13.20;;;;;;;;;;5059802;28;20021;-82
2022/10/19 03:12:16;;;;;;;29.65;13.10;;;;;;;;;;5041254;28;20021;-82
2022/10/19 03:14:42;;;;;;;27.02;12.88;;;;;;;;;;5065721;28;20021;-83
2022/10/19 03:17:09;;;;;;;32.67;14.82;;;;;;;;;;5069764;28;20044;-79
2022/10/19 03:19:40;;;;;;;31.77;13.75;;;;;;;;;;5070503;28;20029;-84
2022/10/19 03:22:07;;;;;;;29.33;14.35;;;;;;;;;;5057241;28;20074;-83
2022/10/19 03:24:33;;;;;;;38.22;15.82;;;;;;;;;;5045837;28;20033;-83
2022/10/19 03:26:59;;;;;;;33.97;14.88;;;;;;;;;;5043339;28;20121;-79
2022/10/19 03:29:25;;;;;;;34.30;15.25;;;;;;;;;;5065089;28;20021;-81
2022/10/19 03:31:51;;;;;;;39.90;16.30;;;;;;;;;;5054887;28;20028;-82
2022/10/19 03:34:17;;;;;;;29.88;15.55;;;;;;;;;;5051035;28;20021;-82
2022/10/19 03:36:46;;;;;;;36.08;16.77;;;;;;;;;;5068166;28;20032;-84
2022/10/19 03:39:21;;;;;;;38.97;17.17;;;;;;;;;;5059684;28;20028;-83
2022/10/19 03:41:49;;;;;;;30.02;16.63;;;;;;;;;;5078093;28;20018;-83
2022/10/19 03:44:21;;;;;;;40.95;17.77;;;;;;;;;;5077543;28;20017;-81
2022/10/19 03:46:47;;;;;;;;;;;;;;;;;;5060188;28;20039;-80
2022/10/19 03:49:13;;;;;;;39.45;20.73;;;;;;;;;;5077106;28;19908;-82
2022/10/19 03:51:39;;;;;;;42.00;18.50;;;;;;;;;;5078028;28;20036;-84
2022/10/19 03:54:06;;;;;;;41.72;17.63;;;;;;;;;;5060877;28;20088;-85
2022/10/19 03:56:33;;;;;;;38.13;18.25;;;;;;;;;;5051965;28;20075;-83
2022/10/19 03:59:00;;;;;;;38.90;18.67;;;;;;;;;;5056628;28;20048;-82
2022/10/19 04:01:27;;;;;;;44.85;17.27;;;;;;;;;;5057425;28;20021;-81
2022/10/19 04:03:54;;;;;;;35.72;18.08;;;;;;;;;;5038540;28;20025;-82
2022/10/19 04:06:22;;;;;;;34.80;16.88;;;;;;;;;;5038709;28;20033;-82
2022/10/19 04:08:49;;;;;;;30.73;17.92;;;;;;;;;;5056910;28;20032;-82
2022/10/19 04:11:20;;;;;;;34.88;16.98;;;;;;;;;;5055586;28;20040;-82
2022/10/19 04:13:50;;;;;;;36.03;17.48;;;;;;;;;;5038433;28;20108;-83
2022/10/19 04:16:16;;;;;;;31.00;16.27;;;;;;;;;;5055864;28;20140;-82
2022/10/19 04:18:43;;;;;;;40.05;16.77;;;;;;;;;;5055772;28;20033;-83
2022/10/19 04:21:21;;;;;;;38.15;15.30;;;;;;;;;;5037596;28;20104;-83
2022/10/19 04:23:48;;;;;;;29.35;15.32;;;;;;;;;;5042479;28;20085;-83
2022/10/19 04:26:14;;;;;;;31.75;14.93;;;;;;;;;;5057740;28;20033;-82
2022/10/19 04:28:40;;;;;;;35.03;14.55;;;;;;;;;;5041225;28;20029;-82
2022/10/19 04:31:06;;;;;;;29.63;14.13;;;;;;;;;;5052373;28;20044;-82
2022/10/19 04:33:38;;;;;;;26.83;14.20;;;;;;;;;;5071040;28;20439;-83
2022/10/19 04:36:05;;;;;;;27.85;15.27;;;;;;;;;;5058352;28;20032;-84
2022/10/19 04:38:32;;;;;;;30.58;14.95;;;;;;;;;;5058893;28;20009;-84
2022/10/19 04:41:02;;;;;;;30.75;14.68;;;;;;;;;;5060089;28;20035;-83
2022/10/19 04:43:28;;;;;;;32.83;15.27;;;;;;;;;;5071713;28;20025;-82
2022/10/19 04:45:54;;;;;;;31.30;14.73;;;;;;;;;;5058823;28;20487;-81
2022/10/19 04:48:20;;;;;;;31.10;14.52;;;;;;;;;;5039599;28;20029;-82
2022/10/19 04:50:46;;;;;;;28.13;13.93;;;;;;;;;;5057622;28;20110;-82
2022/10/19 04:53:12;;;;;;;32.97;15.52;;;;;;;;;;5040025;28;20025;-83
2022/10/19 04:55:44;;;;;;;29.13;15.52;;;;;;;;;;5058778;28;20248;-83
2022/10/19 04:58:10;;;;;;;33.65;16.50;;;;;;;;;;5041088;28;20032;-83
2022/10/19 05:00:37;;;;;;;28.35;14.65;;;;;;;;;;5058690;28;20025;-83
2022/10/19 05:03:06;;;;;;;35.25;15.65;;;;;;;;;;5040397;28;20039;-82
2022/10/19 05:05:33;;;;;;;29.52;15.15;;;;;;;;;;5040310;28;20037;-83
2022/10/19 05:07:59;;;;;;;20.65;13.52;;;;;;;;;;5057978;28;20025;-83
2022/10/19 05:10:25;;;;;;;34.05;14.27;;;;;;;;;;5040064;28;20132;-83
2022/10/19 05:12:51;;;;;;;29.45;13.65;;;;;;;;;;5039398;28;20115;-82
2022/10/19 05:15:17;;;;;;;28.17;13.38;;;;;;;;;;5039891;28;20103;-83
2022/10/19 05:17:43;;;;;;;36.22;14.52;;;;;;;;;;5058816;28;20043;-82
2022/10/19 05:20:12;;;;;;;26.17;12.90;;;;;;;;;;5057034;28;20135;-83
2022/10/19 05:22:39;;;;;;;30.27;14.20;;;;;;;;;;5059504;28;20093;-83
2022/10/19 05:25:06;;;;;;;34.80;13.85;;;;;;;;;;5062144;28;20048;-83
2022/10/19 05:27:34;;;;;;;31.60;13.32;;;;;;;;;;5063471;28;20372;-84
2022/10/19 05:30:03;;;;;;;31.02;12.90;;;;;;;;;;5061060;28;20177;-83
2022/10/19 05:32:29;;;;;;;25.95;11.73;;;;;;;;;;5060812;28;20108;-83
2022/10/19 05:34:58;;;;;;;27.95;11.95;;;;;;;;;;5061911;28;20052;-82
2022/10/19 05:37:24;;;;;;;26.85;12.68;;;;;;;;;;5061999;28;20029;-83
2022/10/19 05:39:50;;;;;;;44.50;14.70;;;;;;;;;;5063303;28;20071;-82
2022/10/19 05:42:16;;;;;;;29.63;13.13;;;;;;;;;;5045537;28;20013;-81
2022/10/19 05:44:42;;;;;;;28.35;13.15;;;;;;;;;;5056560;28;20033;-82
2022/10/19 05:47:09;;;;;;;21.90;11.80;;;;;;;;;;5060577;28;20097;-81
2022/10/19 05:49:35;;;;;;;29.80;12.88;;;;;;;;;;5058073;28;20071;-81
2022/10/19 05:52:00;;;;;;;26.85;13.05;;;;;;;;;;5076310;28;20017;-80
2022/10/19 05:54:26;;;;;;;34.58;13.85;;;;;;;;;;5072505;28;20074;-81
2022/10/19 05:56:52;;;;;;;26.42;13.50;;;;;;;;;;5059959;28;20036;-81
2022/10/19 05:59:19;;;;;;;25.45;12.25;;;;;;;;;;5042892;28;20049;-81
2022/10/19 06:01:46;;;;;;;24.20;12.68;;;;;;;;;;5060968;28;20036;-82
2022/10/19 06:04:13;;;;;;;35.85;13.63;;;;;;;;;;5060570;28;20106;-82
2022/10/19 06:06:40;;;;;;;27.13;12.68;;;;;;;;;;5060110;28;20089;-81
2022/10/19 06:09:06;;;;;;;24.05;12.00;;;;;;;;;;5059925;28;20027;-81
2022/10/19 06:11:36;;;;;;;28.67;12.15;;;;;;;;;;5058611;28;20025;-81
2022/10/19 06:14:04;;;;;;;26.38;12.05;;;;;;;;;;5039583;28;20025;-80
2022/10/19 06:16:30;;;;;;;26.15;11.00;;;;;;;;;;5060685;28;20501;-81
2022/10/19 06:18:57;;;;;;;23.30;11.30;;;;;;;;;;5066473;28;20040;-82
2022/10/19 06:21:23;;;;;;;28.30;11.07;;;;;;;;;;5070437;28;20100;-81
2022/10/19 06:23:50;;;;;;;24.77;10.50;;;;;;;;;;5060952;28;20033;-80
2022/10/19 06:26:16;;;;;;;20.70;9.45;;;;;;;;;;5052976;28;20048;-79
2022/10/19 06:28:43;;;;;;;26.13;10.18;;;;;;;;;;5059443;28;20552;-82
2022/10/19 06:31:09;;;;;;;17.45;9.07;;;;;;;;;;5036810;28;20029;-73
2022/10/19 06:33:35;;;;;;;25.75;8.63;;;;;;;;;;5053480;28;20025;-75
2022/10/19 06:36:06;;;;;;;17.63;8.07;;;;;;;;;;5054348;28;20036;-74
2022/10/19 06:38:31;;;;;;;21.50;8.63;;;;;;;;;;5054754;28;20028;-72
2022/10/19 06:40:58;;;;;;;15.50;7.32;;;;;;;;;;5054296;28;20078;-75
2022/10/19 06:43:24;;;;;;;19.10;8.73;;;;;;;;;;5054105;28;20150;-72
2022/10/19 06:46:03;;;;;;;19.98;7.68;;;;;;;;;;5037446;28;20032;-79
2022/10/19 06:48:34;;;;;;;20.58;6.75;;;;;;;;;;5042036;28;20025;-80
2022/10/19 06:51:39;;;;;;;;;;;;;;;;;;;;;
2022/10/19 08:46:34;;;;;;;8.50;2.25;;;;;;;;;;5046599;28;20084;-83
2022/10/19 08:52:42;;;;;;;10.68;2.50;;;;;;;;;;5029154;28;20037;-81
2022/10/19 09:28:44;;;;;;;;;;;;;;;;;;;;;
2022/10/19 13:23:22;;;;;;;1.55;0.52;;;;;;;;;;4959532;29;20071;-82
2022/10/19 13:29:19;;;;;;;6.60;0.52;;;;;;;;;;4967937;28;20026;-80
2022/10/19 14:23:19;;;;;;;;;;;;;;;;;;5030106;28;20128;-83
2022/10/19 14:26:23;;;;;;;;;;;;;;;;;;;;;
2022/10/19 14:43:07;;;;;;;3.80;1.20;;;;;;;;;;1288165;22;20382;-85
2022/10/19 14:52:15;;;;;;;3.80;0.60;;;;;;;;;;4992713;28;20027;-81
2022/10/19 15:11:35;;;;;;;;;;;;;;;;;;;;;
2022/10/19 15:14:34;;;;;;;2.65;0.60;;;;;;;;;;4954728;29;20123;-81
2022/10/19 15:17:52;;;;;;;;;;;;;;;;;;;;;
2022/10/19 15:20:33;;;;;;;3.60;0.55;;;;;;;;;;5026347;28;20032;-81
2022/10/19 15:23:22;;;;;;;2.80;0.70;;;;;;;;;;5040486;28;20040;-79
2022/10/19 15:26:36;;;;;;;;;;;;;;;;;;;;;
2022/10/19 15:29:48;;;;;;;3.40;1.02;;;;;;;;;;5021178;28;20054;-84
2022/10/19 15:32:35;;;;;;;;;;;;;;;;;;;;;
2022/10/19 15:35:29;;;;;;;1.58;0.60;;;;;;;;;;5025449;28;20068;-79
2022/10/19 15:47:42;;;;;;;;;;;;;;;;;;;;;
2022/10/19 15:50:46;;;;;;;;;;;;;;;;;;;;;
2022/10/19 15:53:38;;;;;;;4.28;1.67;;;;;;;;;;4972404;28;20584;-80
2022/10/19 16:05:24;;;;;;;1.95;0.98;;;;;;;;;;5019084;28;20026;-82
2022/10/19 16:34:40;;;;;;;6.53;1.98;;;;;;;;;;5142600;22;20135;-79
2022/10/19 16:40:43;;;;;;;2.92;2.42;;;;;;;;;;5065794;28;20059;-82
2022/10/19 16:46:28;;;;;;;6.13;2.50;;;;;;;;;;5018112;28;20029;-81
2022/10/19 16:49:17;;;;;;;8.05;2.63;;;;;;;;;;5050006;28;20052;-79
2022/10/19 16:52:32;;;;;;;5.20;2.80;;;;;;;;;;5034621;28;20061;-79
2022/10/19 17:20:27;;;;;;;5.28;2.90;;;;;;;;;;4623497;22;20045;-79
2022/10/19 17:52:41;;;;;;;5.20;2.70;;;;;;;;;;5028545;28;20014;-78
2022/10/19 17:55:47;;;;;;;6.10;2.92;;;;;;;;;;5061874;23;20396;-80
2022/10/19 18:04:20;;;;;;;;;;;;;;;;;;;;;
2022/10/19 18:09:55;;;;;;;6.35;3.63;;;;;;;;;;5048099;28;20444;-79
2022/10/19 18:12:44;;;;;;;11.73;4.97;;;;;;;;;;5055186;28;20076;-79
2022/10/19 18:15:42;;;;;;;7.55;4.57;;;;;;;;;;5044258;28;20037;-80
2022/10/19 18:18:21;;;;;;;15.15;6.72;;;;;;;;;;5032669;28;20057;-83
2022/10/19 18:21:11;;;;;;;11.88;6.13;;;;;;;;;;5030922;28;20020;-80
2022/10/19 18:23:58;;;;;;;12.77;5.80;;;;;;;;;;5028744;28;20069;-83
2022/10/19 18:26:36;;;;;;;11.45;5.80;;;;;;;;;;5044655;28;20041;-80
2022/10/19 18:29:08;;;;;;;13.93;5.45;;;;;;;;;;5031174;28;20029;-80
2022/10/19 18:31:39;;;;;;;9.73;5.88;;;;;;;;;;5029333;28;20022;-79
2022/10/19 18:34:05;;;;;;;;;;;;;;;;;;5028939;28;20030;-79
2022/10/19 18:36:37;;;;;;;10.60;5.40;;;;;;;;;;5045843;28;19968;-80
2022/10/19 18:39:06;;;;;;;10.85;6.50;;;;;;;;;;5026975;28;20388;-79
2022/10/19 18:41:36;;;;;;;9.93;5.97;;;;;;;;;;5025919;28;20026;-81
2022/10/19 18:44:05;;;;;;;8.65;5.75;;;;;;;;;;5032863;28;20033;-81
2022/10/19 18:47:15;;;;;;;;;;;;;;;;;;;;;
2022/10/19 18:53:30;;;;;;;11.50;5.80;;;;;;;;;;4959426;28;20023;-83
2022/10/19 18:56:22;;;;;;;9.52;4.88;;;;;;;;;;4995870;28;20061;-78
2022/10/19 18:59:06;;;;;;;9.35;6.35;;;;;;;;;;5032798;28;20491;-80
2022/10/19 19:01:51;;;;;;;12.75;6.68;;;;;;;;;;5032960;28;20110;-80
2022/10/19 19:04:36;;;;;;;12.00;5.30;;;;;;;;;;5029216;28;20430;-80
2022/10/19 19:07:31;;;;;;;;;;;;;;;;;;;;;
2022/10/19 19:09:58;;;;;;;9.10;6.22;;;;;;;;;;5041530;28;20104;-79
2022/10/19 19:12:26;;;;;;;11.30;7.13;;;;;;;;;;5042057;28;20053;-79
2022/10/19 19:15:10;;;;;;;11.45;6.47;;;;;;;;;;5023491;28;20033;-78
2022/10/19 19:17:44;;;;;;;11.73;6.38;;;;;;;;;;5042351;28;20051;-79
2022/10/19 19:20:21;;;;;;;13.10;6.10;;;;;;;;;;5026258;28;20029;-79
2022/10/19 19:22:50;;;;;;;11.55;6.32;;;;;;;;;;5050336;28;20510;-79
2022/10/19 19:25:28;;;;;;;9.70;6.50;;;;;;;;;;5017305;28;20064;-79
2022/10/19 19:33:55;;;;;;;11.05;7.00;;;;;;;;;;5024836;28;20030;-79
2022/10/19 19:36:23;;;;;;;16.67;6.68;;;;;;;;;;5033345;28;20021;-79
2022/10/19 19:38:52;;;;;;;12.73;6.65;;;;;;;;;;5020031;28;20052;-79
2022/10/19 19:41:21;;;;;;;14.60;7.53;;;;;;;;;;5027120;28;20052;-79
2022/10/19 19:43:50;;;;;;;15.90;7.80;;;;;;;;;;5023219;28;20026;-80
2022/10/19 19:49:15;;;;;;;10.60;6.78;;;;;;;;;;5028625;28;20033;-82
2022/10/19 19:52:00;;;;;;;12.60;7.20;;;;;;;;;;5040760;28;20006;-82
2022/10/19 19:54:52;;;;;;;10.18;5.90;;;;;;;;;;5057010;28;20032;-82
2022/10/19 19:57:19;;;;;;;12.15;6.50;;;;;;;;;;5028576;28;20056;-81
2022/10/19 19:59:56;;;;;;;13.77;6.25;;;;;;;;;;5055100;28;20037;-80
2022/10/19 20:02:24;;;;;;;9.23;6.30;;;;;;;;;;5024259;28;20028;-79
2022/10/19 20:04:50;;;;;;;9.77;6.03;;;;;;;;;;5019853;28;20347;-79
2022/10/19 20:07:18;;;;;;;7.38;5.55;;;;;;;;;;5024366;28;20252;-80
2022/10/19 20:09:44;;;;;;;8.57;5.97;;;;;;;;;;5055307;28;20503;-80
2022/10/19 20:12:14;;;;;;;12.40;6.15;;;;;;;;;;5044043;28;20099;-80
2022/10/19 20:14:41;;;;;;;10.73;5.93;;;;;;;;;;5026011;28;20092;-80
2022/10/19 20:17:07;;;;;;;15.57;6.68;;;;;;;;;;5026733;28;20026;-77
2022/10/19 20:22:34;;;;;;;8.38;4.75;;;;;;;;;;5049176;28;20095;-79
2022/10/19 20:25:05;;;;;;;11.40;5.40;;;;;;;;;;5026599;28;20090;-79
2022/10/19 20:27:34;;;;;;;9.57;5.25;;;;;;;;;;5024814;28;20327;-80
2022/10/19 20:30:19;;;;;;;8.88;4.95;;;;;;;;;;5021185;28;20029;-79
2022/10/19 20:32:51;;;;;;;7.35;4.47;;;;;;;;;;5036767;28;20499;-79
2022/10/19 20:35:17;;;;;;;11.57;5.00;;;;;;;;;;5040320;28;20014;-80
2022/10/19 20:38:03;;;;;;;9.52;5.65;;;;;;;;;;5023781;28;20122;-80
2022/10/19 20:40:32;;;;;;;8.30;5.68;;;;;;;;;;5022408;28;20029;-79
2022/10/19 20:42:58;;;;;;;11.00;5.15;;;;;;;;;;5045560;28;20089;-82
2022/10/19 20:45:26;;;;;;;10.48;5.88;;;;;;;;;;5050815;28;20530;-80
2022/10/19 20:47:55;;;;;;;8.95;5.32;;;;;;;;;;5046348;28;20080;-81
2022/10/19 20:50:24;;;;;;;14.30;6.18;;;;;;;;;;5038659;28;20017;-80
2022/10/19 20:52:50;;;;;;;11.43;6.40;;;;;;;;;;5019710;28;20021;-79
2022/10/19 20:55:16;;;;;;;13.20;6.70;;;;;;;;;;5045432;28;20610;-79
2022/10/19 20:57:42;;;;;;;9.15;6.20;;;;;;;;;;5035147;28;20033;-77
2022/10/19 21:00:08;;;;;;;13.13;6.97;;;;;;;;;;5036021;28;20040;-79
2022/10/19 21:02:37;;;;;;;12.68;6.45;;;;;;;;;;5031806;28;20044;-79
2022/10/19 21:05:06;;;;;;;9.73;5.97;;;;;;;;;;5029850;28;20026;-78
2022/10/19 21:07:32;;;;;;;11.40;6.32;;;;;;;;;;5012634;28;20065;-78
2022/10/19 21:10:02;;;;;;;10.23;6.07;;;;;;;;;;5012936;28;20018;-78
2022/10/19 21:12:33;;;;;;;10.82;6.35;;;;;;;;;;5013356;28;20026;-78
2022/10/19 21:14:59;;;;;;;10.10;6.63;;;;;;;;;;5030964;28;20018;-79
2022/10/19 21:17:27;;;;;;;10.98;5.78;;;;;;;;;;5013339;28;20117;-79
2022/10/19 21:19:53;;;;;;;14.65;5.70;;;;;;;;;;5032080;28;20033;-79
2022/10/19 21:22:19;;;;;;;10.75;6.15;;;;;;;;;;5038203;28;20032;-79
2022/10/19 21:24:45;;;;;;;8.38;5.82;;;;;;;;;;5018214;28;20442;-76
2022/10/19 21:27:13;;;;;;;8.55;5.55;;;;;;;;;;5036567;28;20057;-79
2022/10/19 21:29:39;;;;;;;7.55;5.35;;;;;;;;;;5048370;28;20041;-80
2022/10/19 21:32:05;;;;;;;10.05;5.68;;;;;;;;;;5017585;28;20017;-79
2022/10/19 21:34:31;;;;;;;8.45;5.57;;;;;;;;;;5016748;28;20022;-79
2022/10/19 21:36:57;;;;;;;7.78;4.80;;;;;;;;;;5015281;28;20026;-81
2022/10/19 21:39:27;;;;;;;10.07;6.15;;;;;;;;;;5018831;28;20029;-80
2022/10/19 21:41:53;;;;;;;7.13;5.45;;;;;;;;;;5034957;28;20025;-78
2022/10/19 21:44:21;;;;;;;7.78;4.68;;;;;;;;;;5013068;28;20029;-78
2022/10/19 21:46:48;;;;;;;8.52;5.10;;;;;;;;;;5034190;28;20052;-79
2022/10/19 21:49:14;;;;;;;8.43;5.18;;;;;;;;;;5047540;28;20063;-77
2022/10/19 21:51:50;;;;;;;8.35;4.75;;;;;;;;;;5025911;28;20017;-79
2022/10/19 21:54:18;;;;;;;6.32;4.97;;;;;;;;;;5042842;28;20551;-80
2022/10/19 21:56:45;;;;;;;9.27;5.60;;;;;;;;;;5057517;28;20063;-79
2022/10/19 21:59:11;;;;;;;7.38;4.65;;;;;;;;;;5025788;28;20028;-79
2022/10/19 22:01:37;;;;;;;10.00;5.45;;;;;;;;;;5040544;28;20029;-79
2022/10/19 22:04:05;;;;;;;5.70;4.97;;;;;;;;;;5022480;28;20056;-82
2022/10/19 22:06:32;;;;;;;7.28;4.63;;;;;;;;;;5024614;28;20079;-81
2022/10/19 22:08:58;;;;;;;8.40;4.72;;;;;;;;;;5033995;28;20396;-80
2022/10/19 22:11:24;;;;;;;7.10;4.75;;;;;;;;;;5035109;28;20057;-79
2022/10/19 22:13:57;;;;;;;9.88;5.65;;;;;;;;;;5064255;28;20029;-82
2022/10/19 22:16:24;;;;;;;6.55;4.50;;;;;;;;;;5043824;28;20033;-79
2022/10/19 22:18:50;;;;;;;7.03;4.45;;;;;;;;;;5054094;28;20017;-81
2022/10/19 22:21:19;;;;;;;6.68;4.25;;;;;;;;;;5036929;28;20446;-76
2022/10/19 22:23:49;;;;;;;6.97;4.78;;;;;;;;;;5028918;28;20034;-81
2022/10/19 22:26:18;;;;;;;7.63;5.07;;;;;;;;;;5052234;28;20026;-81
2022/10/19 22:28:45;;;;;;;8.02;4.65;;;;;;;;;;5051299;28;20047;-81
2022/10/19 22:31:11;;;;;;;4.10;3.70;;;;;;;;;;5039572;28;20076;-81
2022/10/19 22:33:37;;;;;;;8.20;5.28;;;;;;;;;;5060903;28;20029;-80
2022/10/19 22:36:05;;;;;;;9.13;5.10;;;;;;;;;;5041729;28;20053;-81
2022/10/19 22:38:31;;;;;;;13.65;5.55;;;;;;;;;;5033926;28;20036;-81
2022/10/19 22:40:57;;;;;;;7.50;5.28;;;;;;;;;;5063080;28;20107;-81
2022/10/19 22:43:23;;;;;;;6.50;4.82;;;;;;;;;;5028490;28;20029;-81
2022/10/19 22:45:49;;;;;;;4.80;3.97;;;;;;;;;;5054500;28;20059;-81
2022/10/19 22:48:16;;;;;;;10.23;4.63;;;;;;;;;;5052431;28;20044;-82
2022/10/19 22:50:42;;;;;;;10.90;4.47;;;;;;;;;;5061919;28;20407;-82
2022/10/19 22:53:08;;;;;;;4.97;3.92;;;;;;;;;;5053079;28;20048;-81
2022/10/19 22:55:34;;;;;;;6.78;4.90;;;;;;;;;;5062414;28;20029;-82
2022/10/19 22:58:00;;;;;;;6.65;4.85;;;;;;;;;;5047745;28;20048;-81
2022/10/19 23:00:26;;;;;;;7.10;4.93;;;;;;;;;;5039801;28;20025;-82
2022/10/19 23:02:52;;;;;;;7.25;5.22;;;;;;;;;;5035859;28;20028;-81
2022/10/19 23:05:18;;;;;;;6.78;4.93;;;;;;;;;;5026980;28;20049;-81
2022/10/19 23:07:44;;;;;;;9.40;5.10;;;;;;;;;;5029260;28;20025;-81
2022/10/19 23:10:11;;;;;;;7.72;4.90;;;;;;;;;;5034115;28;20028;-82
2022/10/19 23:12:36;;;;;;;7.55;5.25;;;;;;;;;;5056099;28;20021;-82
2022/10/19 23:15:03;;;;;;;8.70;5.97;;;;;;;;;;5057168;28;20029;-79
2022/10/19 23:17:29;;;;;;;8.77;5.18;;;;;;;;;;5046435;28;20033;-80
2022/10/19 23:19:55;;;;;;;10.65;4.90;;;;;;;;;;5034347;28;20026;-80
2022/10/19 23:22:23;;;;;;;7.20;4.78;;;;;;;;;;5035317;28;20383;-79
2022/10/19 23:24:52;;;;;;;5.25;4.05;;;;;;;;;;5052455;28;20025;-78
2022/10/19 23:27:20;;;;;;;8.63;5.45;;;;;;;;;;5034277;28;20522;-80
2022/10/19 23:29:46;;;;;;;7.95;5.07;;;;;;;;;;5032904;28;20029;-80
2022/10/19 23:32:12;;;;;;;8.25;5.80;;;;;;;;;;5049043;28;20013;-80
2022/10/19 23:34:38;;;;;;;6.57;5.13;;;;;;;;;;5029658;28;20395;-80
2022/10/19 23:37:04;;;;;;;8.88;5.80;;;;;;;;;;5029107;28;20025;-79
2022/10/19 23:39:30;;;;;;;9.60;5.53;;;;;;;;;;5046723;28;20029;-80
2022/10/19 23:41:56;;;;;;;7.10;5.38;;;;;;;;;;5047656;28;20025;-80
2022/10/19 23:44:23;;;;;;;8.43;4.85;;;;;;;;;;5035719;28;20029;-82
2022/10/19 23:46:52;;;;;;;7.53;5.45;;;;;;;;;;5056679;28;20044;-82
2022/10/19 23:49:18;;;;;;;7.43;5.68;;;;;;;;;;5056169;28;20025;-81
2022/10/19 23:51:46;;;;;;;5.95;4.70;;;;;;;;;;5039290;28;20036;-81
2022/10/19 23:54:12;;;;;;;8.50;3.88;;;;;;;;;;5035909;28;20021;-82
2022/10/19 23:56:38;;;;;;;6.97;4.82;;;;;;;;;;5047753;28;20033;-81
2022/10/19 23:59:08;;;;;;;7.40;4.75;;;;;;;;;;5053613;28;20037;-81
